WIII/CGK METAR and TAF weather

Enter ICAO airport designator
Station Type Date Time Source
WIII METAR 2019/08/25 20:00 UTC NOAA

WIII 252000Z 20006KT 6000 FEW020 25/19 Q1010 NOSIG


Station Type Date Time Source
WIII Decoded METAR 2019/08/25 20:00 UTC NOAA

Station name not available
Aug 25, 2019 - 04:00 PM EDT / 2019.08.25 2000 UTC
Wind: from the SSW (200 degrees) at 7 MPH (6 KT):0
Visibility: 3 mile(s):0
Sky conditions: mostly clear
Temperature: 77 F (25 C)
Dew Point: 66 F (19 C)
Relative Humidity: 69%
Pressure (altimeter): 29.83 in. Hg (1010 hPa)
ob: WIII 252000Z 20006KT 6000 FEW020 25/19 Q1010 NOSIG
cycle: 20

Station Type Date Time Source
WIII TAF 2019/08/25 18:30 UTC NOAA

TAF WIII 251700Z 2518/2624 06010KT 5000 HZ FEW020
BECMG 2523/2601 8000 NSW

Example: see airport list